In Rescue
 
Open Full Screen Window  High Contrast Mode
Wind Gusting 00 knots
05
January 24, 2020 7:19 PM CST
Present Weather: Unknown Precipitation
Weather Information
Wind Direction
  340 °
Wind Speed
  05 kt (6 mph)
Wind Gust
  00 kt (0 mph)
Altimeter
29.97 in
Visibility
10 SM
Temperature
00° C
32° F
Dewpoint
-01° C
30° F
Humidity
93%
1hr Rain Fall
00.00 in.
24hr Rain Fall
00.00 in.
Sky Condition
Broken @ 800 ft
IFR

METAR K21D 250119Z AUTO 34005KT 10SM UP BKN008 00/M01 A2997 RMK AO2

FAA Disclaimer: The data displayed is for advisory purposes only and is not to be used for flight planning or operations.